KELN/ELN METAR and TAF weather

Enter ICAO airport designator
Station Type Date Time Source
KELN METAR 2022/05/26 04:53 UTC NOAA

KELN 260453Z AUTO 29007KT 10SM CLR 16/04 A2993 RMK AO2 SLP131 T01560044


Station Type Date Time Source
KELN Decoded METAR 2022/05/26 04:53 UTC NOAA

ELLENSBURG BOWERS FIELD, WA, United States (KELN) 47-02N 120-32W 519M
May 26, 2022 - 12:53 AM EDT / 2022.05.26 0453 UTC
Wind: from the WNW (290 degrees) at 8 MPH (7 KT):0
Visibility: 10 mile(s):0
Sky conditions: clear
Temperature: 60.1 F (15.6 C)
Dew Point: 39.9 F (4.4 C)
Relative Humidity: 47%
Pressure (altimeter): 29.93 in. Hg (1013 hPa)
ob: KELN 260453Z AUTO 29007KT 10SM CLR 16/04 A2993 RMK AO2 SLP131 T01560044
cycle: 5

Station Type Date Time Source
KELN TAF UTC NOAA

Error!

Example: see airport list